Derby, KS (67037)

4:19 AM CST on February 06, 2016 (GMT -0600)
Spring Ridge | | Change Station
CLOSE
Current Station
Personal Weather Station
Location: Derby, KS
Elevation: 1316 ft
Nearby Weather Stations

Elev 1316 ft 37.56 °N, 97.23 °W | Updated 6 seconds ago

Clear
Clear
31.9 °F
Feels Like 32 °F
N
2.0
Wind Variable Wind from NW
Gusts 4.0 mph

Today
High -- | Low -- °F
--% Chance of Precip.
Yesterday
High -- | Low -- °F
Precip. -- in
Pressure 30.32 in
Visibility 10.0 miles
Clouds Clear
Windchill 32 °F
Dew Point 28 °F
Humidity 85%
Rainfall 0.00 in
Snow Depth Not available.
7:28 AM 5:58 PM
Waning Crescent, 6% visible
METAR KIAB 060958Z AUTO 31004KT 10SM CLR 00/M03 A3029 RMK AO2 SLP266 T10051031
Pressure 30.32 in
Visibility 10.0 miles
Clouds Clear
Windchill 32 °F
Dew Point 28 °F
Humidity 85%
Rainfall 0.00 in
Snow Depth Not available.
7:28 AM 5:58 PM
Waning Crescent, 6% visible
METAR KIAB 060958Z AUTO 31004KT 10SM CLR 00/M03 A3029 RMK AO2 SLP266 T10051031

10-Day Weather Forecast

Almanac

Astronomy

Feb. 06, 2016 Rise Set
Actual Time
Civil Twilight
Nautical Twilight
Astronomical Twilight
Moon
Length of Visible Light
Length of Day
Tomorrow will be .
, % of the Moon is Illuminated

Today's Extremes

State Highs State Lows

Community

WunderPhotos

Upload Photos

1,890,933 photos uploaded!

WunderBlog® & News

Nearby

Air Quality

  Air Quality AQ Index Pollutant
Not available.

Snow Depth

Station Depth Elevation

Earthquake Activity

City Distance Mag. Time & Date
Minimum magnitude displayed is 2.5.

Coastal Water Temperatures

Place Temperature

Stations

Nearby Weather Stations

Station Location Temp. Windchill Dew Point Humidity Wind Precip. Elev Updated Type
                   

Watches & Warnings

There are currently no watches in effect.